createdAt,value
2023-02-20T00:00:19.812Z,5.57
2023-02-20T00:01:19.867Z,5.59
2023-02-20T00:02:19.844Z,5.59
2023-02-20T00:03:19.854Z,5.59
2023-02-20T00:04:19.809Z,5.57
2023-02-20T00:05:19.803Z,5.57
2023-02-20T00:06:19.775Z,5.57
2023-02-20T00:07:19.790Z,5.54
2023-02-20T00:08:19.750Z,5.54
2023-02-20T00:09:19.720Z,5.56
2023-02-20T00:10:19.734Z,5.57
2023-02-20T00:11:19.699Z,5.56
2023-02-20T00:12:19.743Z,5.57
2023-02-20T00:13:19.690Z,5.56
2023-02-20T00:14:19.691Z,5.56
2023-02-20T00:15:19.664Z,5.59
2023-02-20T00:16:19.674Z,5.56
2023-02-20T00:17:19.655Z,5.56
2023-02-20T00:18:19.681Z,5.56
2023-02-20T00:19:19.620Z,5.57
2023-02-20T00:20:19.669Z,5.54
2023-02-20T00:21:19.611Z,5.54
2023-02-20T00:22:19.615Z,5.54
2023-02-20T00:23:19.628Z,5.56
2023-02-20T00:24:19.619Z,5.56
2023-02-20T00:25:19.628Z,5.56
2023-02-20T00:26:19.570Z,5.57
2023-02-20T00:27:19.587Z,5.56
2023-02-20T00:28:19.573Z,5.57
2023-02-20T00:29:19.553Z,5.56
2023-02-20T00:30:19.613Z,5.56
2023-02-20T00:31:19.593Z,5.56
2023-02-20T00:32:19.513Z,5.57
2023-02-20T00:33:19.501Z,5.57
2023-02-20T00:34:19.502Z,5.57
2023-02-20T00:35:19.482Z,5.57
2023-02-20T00:36:19.496Z,5.59
2023-02-20T00:37:19.460Z,5.59
2023-02-20T00:38:19.583Z,5.56
2023-02-20T00:39:19.436Z,5.56
2023-02-20T00:40:19.419Z,5.56
2023-02-20T00:41:19.476Z,5.56
2023-02-20T00:42:19.417Z,5.57
2023-02-20T00:43:19.419Z,5.57
2023-02-20T00:44:19.399Z,5.57
2023-02-20T00:45:19.419Z,5.57
2023-02-20T00:46:19.416Z,5.57
2023-02-20T00:47:19.356Z,5.57
2023-02-20T00:48:19.357Z,5.57
2023-02-20T00:49:19.374Z,5.56
2023-02-20T00:50:19.516Z,5.57
2023-02-20T00:51:19.478Z,5.59
2023-02-20T00:52:19.540Z,5.57
2023-02-20T00:53:19.332Z,5.57
2023-02-20T00:54:19.307Z,5.57
2023-02-20T00:55:19.338Z,5.57
2023-02-20T00:56:19.306Z,5.59
2023-02-20T00:57:19.299Z,5.59
2023-02-20T00:58:19.244Z,5.61
2023-02-20T00:59:19.339Z,5.62
2023-02-20T01:00:19.608Z,5.61
2023-02-20T01:01:19.267Z,5.61
2023-02-20T01:02:19.209Z,5.61
2023-02-20T01:03:19.267Z,5.62
2023-02-20T01:04:19.229Z,5.62
2023-02-20T01:05:19.183Z,5.62
2023-02-20T01:06:19.170Z,5.62
2023-02-20T01:07:19.150Z,5.62
2023-02-20T01:08:19.145Z,5.62
2023-02-20T01:09:19.145Z,5.61
2023-02-20T01:10:19.153Z,5.59
2023-02-20T01:11:19.128Z,5.61
2023-02-20T01:12:19.135Z,5.59
2023-02-20T01:13:19.149Z,5.61
2023-02-20T01:14:19.072Z,5.59
2023-02-20T01:15:19.131Z,5.61
2023-02-20T01:16:19.101Z,5.62
2023-02-20T01:17:19.079Z,5.64
2023-02-20T01:18:19.040Z,5.64
2023-02-20T01:19:19.068Z,5.62
2023-02-20T01:20:19.070Z,5.64
2023-02-20T01:21:19.035Z,5.64
2023-02-20T01:22:19.012Z,5.64
2023-02-20T01:23:19.061Z,5.64
2023-02-20T01:24:18.985Z,5.64
2023-02-20T01:25:18.971Z,5.65
2023-02-20T01:26:19.023Z,5.66
2023-02-20T01:27:18.989Z,5.66
2023-02-20T01:28:18.973Z,5.66
2023-02-20T01:29:18.953Z,5.66
2023-02-20T01:30:18.956Z,5.69
2023-02-20T01:31:19.034Z,5.68
2023-02-20T01:32:18.926Z,5.68
2023-02-20T01:33:18.898Z,5.69
2023-02-20T01:34:18.883Z,5.68
2023-02-20T01:35:18.908Z,5.69
2023-02-20T01:36:18.898Z,5.69
2023-02-20T01:37:18.881Z,5.71
2023-02-20T01:38:18.848Z,5.71
2023-02-20T01:39:18.877Z,5.71
2023-02-20T01:40:18.874Z,5.69
2023-02-20T01:41:18.842Z,5.72
2023-02-20T01:42:18.827Z,5.72
2023-02-20T01:43:18.835Z,5.71
2023-02-20T01:44:18.801Z,5.72
2023-02-20T01:45:18.799Z,5.73
2023-02-20T01:46:18.868Z,5.75
2023-02-20T01:47:18.790Z,5.75
2023-02-20T01:48:18.762Z,5.76
2023-02-20T01:49:18.761Z,5.75
2023-02-20T01:50:18.796Z,5.79
2023-02-20T01:51:18.710Z,5.79
2023-02-20T01:52:18.727Z,5.79
2023-02-20T01:53:18.715Z,5.76
2023-02-20T01:54:18.706Z,5.80
2023-02-20T01:55:18.687Z,5.80
2023-02-20T01:56:18.668Z,5.79
2023-02-20T01:57:18.685Z,5.80
2023-02-20T01:58:18.690Z,5.79
2023-02-20T01:59:18.740Z,5.80
2023-02-20T02:00:18.642Z,5.80
2023-02-20T02:01:18.633Z,5.79
2023-02-20T02:02:18.606Z,5.80
2023-02-20T02:03:18.634Z,5.79
2023-02-20T02:04:18.602Z,5.80
2023-02-20T02:05:18.628Z,5.79
2023-02-20T02:06:18.604Z,5.80
2023-02-20T02:07:18.595Z,5.82
2023-02-20T02:08:18.587Z,5.83
2023-02-20T02:09:18.604Z,5.82
2023-02-20T02:10:18.541Z,5.80
2023-02-20T02:11:18.536Z,5.80
2023-02-20T02:12:18.504Z,5.80
2023-02-20T02:13:18.532Z,5.82
2023-02-20T02:14:18.502Z,5.82
2023-02-20T02:15:18.501Z,5.80
2023-02-20T02:16:18.468Z,5.79
2023-02-20T02:17:18.513Z,5.79
2023-02-20T02:18:18.462Z,5.75
2023-02-20T02:19:18.448Z,5.75
2023-02-20T02:20:18.476Z,5.73
2023-02-20T02:21:18.468Z,5.72
2023-02-20T02:22:18.442Z,5.69
2023-02-20T02:23:18.421Z,5.71
2023-02-20T02:24:18.380Z,5.68
2023-02-20T02:25:18.375Z,5.66
2023-02-20T02:26:18.536Z,5.66
2023-02-20T02:27:18.398Z,5.69
2023-02-20T02:28:18.422Z,5.69
2023-02-20T02:29:18.378Z,5.69
2023-02-20T02:30:18.384Z,5.68
2023-02-20T02:31:18.416Z,5.68
2023-02-20T02:32:18.302Z,5.68
2023-02-20T02:33:18.307Z,5.68
2023-02-20T02:34:18.347Z,5.68
2023-02-20T02:35:18.297Z,5.68
2023-02-20T02:36:18.266Z,5.66
2023-02-20T02:37:18.263Z,5.66
2023-02-20T02:38:18.299Z,5.65
2023-02-20T02:39:18.285Z,5.64
2023-02-20T02:40:18.214Z,5.64
2023-02-20T02:41:18.230Z,5.61
2023-02-20T02:42:18.239Z,5.59
2023-02-20T02:43:18.196Z,5.59
2023-02-20T02:44:18.214Z,5.59
2023-02-20T02:45:18.230Z,5.57
2023-02-20T02:46:18.163Z,5.57
2023-02-20T02:47:18.150Z,5.57
2023-02-20T02:48:18.144Z,5.59
2023-02-20T02:49:18.159Z,5.59
2023-02-20T02:50:18.137Z,5.59
2023-02-20T02:51:18.157Z,5.62
2023-02-20T02:52:18.111Z,5.61
2023-02-20T02:53:18.104Z,5.59
2023-02-20T02:54:18.089Z,5.59
2023-02-20T02:55:18.137Z,5.61
2023-02-20T02:56:18.100Z,5.59
2023-02-20T02:57:18.078Z,5.59
2023-02-20T02:58:18.051Z,5.61
2023-02-20T02:59:18.030Z,5.59
2023-02-20T03:00:18.024Z,5.59
2023-02-20T03:01:18.093Z,5.61
2023-02-20T03:02:18.093Z,5.61
2023-02-20T03:03:17.992Z,5.61
2023-02-20T03:04:17.984Z,5.57
2023-02-20T03:05:17.977Z,5.62
2023-02-20T03:06:18.006Z,5.59
2023-02-20T03:07:17.998Z,5.59
2023-02-20T03:08:17.961Z,5.59
2023-02-20T03:09:17.952Z,5.57
2023-02-20T03:10:17.914Z,5.57
2023-02-20T03:11:17.917Z,5.59
2023-02-20T03:12:17.926Z,5.59
2023-02-20T03:13:17.909Z,5.57
2023-02-20T03:14:17.906Z,5.57
2023-02-20T03:15:17.897Z,5.62
2023-02-20T03:16:17.891Z,5.64
2023-02-20T03:17:17.842Z,5.62
2023-02-20T03:18:17.854Z,5.62
2023-02-20T03:19:17.843Z,5.61
2023-02-20T03:20:17.835Z,5.59
2023-02-20T03:21:17.835Z,5.61
2023-02-20T03:22:17.845Z,5.59
2023-02-20T03:23:17.786Z,5.56
2023-02-20T03:24:17.819Z,5.56
2023-02-20T03:25:17.820Z,5.57
2023-02-20T03:26:18.815Z,5.59
2023-02-20T03:27:17.771Z,5.57
2023-02-20T03:28:17.741Z,5.59
2023-02-20T03:29:17.753Z,5.61
2023-02-20T03:30:17.834Z,5.59
2023-02-20T03:31:17.869Z,5.57
2023-02-20T03:32:17.763Z,5.59
2023-02-20T03:33:17.708Z,5.59
2023-02-20T03:34:17.683Z,5.59
2023-02-20T03:35:17.700Z,5.61
2023-02-20T03:36:17.681Z,5.61
2023-02-20T03:37:17.669Z,5.61
2023-02-20T03:38:17.676Z,5.62
2023-02-20T03:39:17.661Z,5.61
2023-02-20T03:40:17.622Z,5.61
2023-02-20T03:41:17.635Z,5.59
2023-02-20T03:42:18.115Z,5.59
2023-02-20T03:43:17.609Z,5.59
2023-02-20T03:44:17.588Z,5.59
2023-02-20T03:45:17.583Z,5.57
2023-02-20T03:46:17.604Z,5.57
2023-02-20T03:47:17.616Z,5.57
2023-02-20T03:48:17.604Z,5.59
2023-02-20T03:49:17.567Z,5.56
2023-02-20T03:50:17.540Z,5.57
2023-02-20T03:51:17.540Z,5.56
2023-02-20T03:52:17.492Z,5.56
2023-02-20T03:53:17.540Z,5.56
2023-02-20T03:54:17.524Z,5.54
2023-02-20T03:55:17.474Z,5.57
2023-02-20T03:56:17.443Z,5.54
2023-02-20T03:57:17.455Z,5.56
2023-02-20T03:58:17.453Z,5.53
2023-02-20T03:59:17.489Z,5.54
2023-02-20T04:00:17.463Z,5.56
2023-02-20T04:01:17.453Z,5.51
2023-02-20T04:02:17.439Z,5.53
2023-02-20T04:03:17.423Z,5.50
2023-02-20T04:04:17.377Z,5.51
2023-02-20T04:05:17.382Z,5.51
2023-02-20T04:06:17.376Z,5.50
2023-02-20T04:07:17.370Z,5.51
2023-02-20T04:08:17.356Z,5.51
2023-02-20T04:09:17.338Z,5.51
2023-02-20T04:10:17.352Z,5.51
2023-02-20T04:11:17.397Z,5.51
2023-02-20T04:12:17.302Z,5.51
2023-02-20T04:13:17.330Z,5.51
2023-02-20T04:14:17.303Z,5.50
2023-02-20T04:15:17.329Z,5.51
2023-02-20T04:16:17.334Z,5.50
2023-02-20T04:17:17.300Z,5.50
2023-02-20T04:18:17.249Z,5.47
2023-02-20T04:19:17.235Z,5.48
2023-02-20T04:20:17.215Z,5.47
2023-02-20T04:21:17.266Z,5.46
2023-02-20T04:22:17.215Z,5.47
2023-02-20T04:23:17.235Z,5.47
2023-02-20T04:24:17.203Z,5.46
2023-02-20T04:25:17.154Z,5.46
2023-02-20T04:26:17.230Z,5.48
2023-02-20T04:27:17.157Z,5.47
2023-02-20T04:28:17.144Z,5.47
2023-02-20T04:29:17.137Z,5.48
2023-02-20T04:30:17.207Z,5.48
2023-02-20T04:31:17.173Z,5.48
2023-02-20T04:32:17.088Z,5.51
2023-02-20T04:33:17.121Z,5.51
2023-02-20T04:34:17.094Z,5.53
2023-02-20T04:35:17.087Z,5.53
2023-02-20T04:36:17.086Z,5.51
2023-02-20T04:37:17.053Z,5.50
2023-02-20T04:38:17.024Z,5.50
2023-02-20T04:39:17.022Z,5.50
2023-02-20T04:40:17.083Z,5.50
2023-02-20T04:41:16.997Z,5.51
2023-02-20T04:42:16.995Z,5.51
2023-02-20T04:43:17.040Z,5.56
2023-02-20T04:44:16.981Z,5.57
2023-02-20T04:45:16.956Z,5.57
2023-02-20T04:46:17.019Z,5.59
2023-02-20T04:47:17.009Z,5.61
2023-02-20T04:48:16.944Z,5.62
2023-02-20T04:49:16.923Z,5.62
2023-02-20T04:50:16.926Z,5.65
2023-02-20T04:51:16.914Z,5.65
2023-02-20T04:52:16.941Z,5.66
2023-02-20T04:53:16.910Z,5.66
2023-02-20T04:54:16.884Z,5.69
2023-02-20T04:55:16.858Z,5.68
2023-02-20T04:56:16.893Z,5.71
2023-02-20T04:57:16.907Z,5.72
2023-02-20T04:58:16.878Z,5.72
2023-02-20T04:59:16.834Z,5.73
2023-02-20T05:00:16.811Z,5.75
2023-02-20T05:01:16.843Z,5.76
2023-02-20T05:02:16.796Z,5.79
2023-02-20T05:03:16.814Z,5.80
2023-02-20T05:04:16.827Z,5.80
2023-02-20T05:05:16.757Z,5.83
2023-02-20T05:06:16.775Z,5.84
2023-02-20T05:07:16.775Z,5.86
2023-02-20T05:08:16.765Z,5.86
2023-02-20T05:09:16.766Z,5.86
2023-02-20T05:10:16.755Z,5.86
2023-02-20T05:11:16.743Z,5.87
2023-02-20T05:12:16.720Z,5.89
2023-02-20T05:13:16.687Z,5.90
2023-02-20T05:14:16.707Z,5.91
2023-02-20T05:15:16.678Z,5.90
2023-02-20T05:16:16.756Z,5.93
2023-02-20T05:17:16.625Z,5.93
2023-02-20T05:18:16.644Z,5.93
2023-02-20T05:19:16.610Z,5.91
2023-02-20T05:20:16.630Z,5.93
2023-02-20T05:21:16.596Z,5.94
2023-02-20T05:22:16.612Z,5.97
2023-02-20T05:23:16.587Z,5.98
2023-02-20T05:24:16.588Z,5.98
2023-02-20T05:25:16.570Z,5.98
2023-02-20T05:26:16.572Z,5.97
2023-02-20T05:27:16.541Z,5.98
2023-02-20T05:28:16.524Z,5.98
2023-02-20T05:29:16.532Z,5.97
2023-02-20T05:30:16.583Z,5.98
2023-02-20T05:31:17.891Z,5.99
2023-02-20T05:32:16.581Z,5.99
2023-02-20T05:33:16.512Z,6.01
2023-02-20T05:34:16.478Z,6.01
2023-02-20T05:35:16.453Z,5.99
2023-02-20T05:36:16.514Z,6.01
2023-02-20T05:37:16.420Z,6.01
2023-02-20T05:38:16.492Z,6.01
2023-02-20T05:39:16.430Z,6.02
2023-02-20T05:40:16.415Z,6.01
2023-02-20T05:41:16.399Z,5.99
2023-02-20T05:42:16.455Z,6.01
2023-02-20T05:43:16.397Z,6.02
2023-02-20T05:44:16.396Z,6.02
2023-02-20T05:45:16.376Z,6.01
2023-02-20T05:46:16.365Z,5.99
2023-02-20T05:47:16.341Z,6.01
2023-02-20T05:48:16.357Z,5.99
2023-02-20T05:49:16.393Z,6.01
2023-02-20T05:50:16.297Z,5.99
2023-02-20T05:51:16.277Z,6.01
2023-02-20T05:52:16.300Z,6.01
2023-02-20T05:53:16.297Z,5.99
2023-02-20T05:54:16.313Z,5.99
2023-02-20T05:55:16.246Z,6.01
2023-02-20T05:56:16.270Z,6.01
2023-02-20T05:57:16.291Z,5.99
2023-02-20T05:58:16.240Z,5.99
2023-02-20T05:59:16.202Z,5.99
2023-02-20T06:00:16.201Z,5.99
2023-02-20T06:01:16.183Z,5.99
2023-02-20T06:02:16.200Z,5.99
2023-02-20T06:03:16.178Z,5.99
2023-02-20T06:04:16.205Z,5.99
2023-02-20T06:05:16.196Z,5.98
2023-02-20T06:06:16.165Z,5.98
2023-02-20T06:07:16.131Z,5.99
2023-02-20T06:08:16.135Z,5.99
2023-02-20T06:09:16.124Z,5.99
2023-02-20T06:10:16.116Z,5.99
2023-02-20T06:11:16.087Z,5.99
2023-02-20T06:12:16.203Z,5.99
2023-02-20T06:13:16.074Z,5.98
2023-02-20T06:14:16.071Z,6.01
2023-02-20T06:15:16.048Z,5.99
2023-02-20T06:16:16.371Z,5.99
2023-02-20T06:17:16.026Z,5.98
2023-02-20T06:18:15.972Z,5.99
2023-02-20T06:19:15.996Z,5.99
2023-02-20T06:20:15.940Z,5.99
2023-02-20T06:21:15.983Z,6.01
2023-02-20T06:22:15.953Z,5.99
2023-02-20T06:23:15.948Z,6.02
2023-02-20T06:24:15.916Z,5.99
2023-02-20T06:25:15.889Z,6.01
2023-02-20T06:26:15.917Z,6.01
2023-02-20T06:27:15.905Z,6.01
2023-02-20T06:28:15.902Z,5.99
2023-02-20T06:29:15.863Z,6.02
2023-02-20T06:30:15.904Z,6.01
2023-02-20T06:31:15.903Z,6.01
2023-02-20T06:32:15.870Z,6.01
2023-02-20T06:33:15.838Z,6.01
2023-02-20T06:34:15.873Z,5.99
2023-02-20T06:35:15.847Z,6.01
2023-02-20T06:36:15.796Z,6.01
2023-02-20T06:37:15.788Z,6.02
2023-02-20T06:38:15.881Z,6.01
2023-02-20T06:39:15.769Z,6.02
2023-02-20T06:40:15.790Z,6.04
2023-02-20T06:41:15.755Z,6.02
2023-02-20T06:42:15.772Z,6.01
2023-02-20T06:43:15.750Z,6.02
2023-02-20T06:44:15.712Z,6.01
2023-02-20T06:45:15.760Z,6.02
2023-02-20T06:46:15.756Z,6.02
2023-02-20T06:47:15.693Z,6.02
2023-02-20T06:48:15.722Z,6.01
2023-02-20T06:49:15.661Z,6.02
2023-02-20T06:50:15.660Z,6.02
2023-02-20T06:51:15.689Z,6.01
2023-02-20T06:52:15.653Z,6.05
2023-02-20T06:53:15.872Z,6.02
2023-02-20T06:54:15.631Z,6.04
2023-02-20T06:55:15.587Z,6.04
2023-02-20T06:56:15.599Z,6.04
2023-02-20T06:57:15.589Z,6.02
2023-02-20T06:58:15.594Z,6.02
2023-02-20T06:59:15.559Z,6.04
2023-02-20T07:00:15.559Z,6.04
2023-02-20T07:01:15.563Z,6.05
2023-02-20T07:02:15.668Z,6.08
2023-02-20T07:03:15.522Z,6.05
2023-02-20T07:04:15.561Z,6.07
2023-02-20T07:05:15.512Z,6.09
2023-02-20T07:06:15.541Z,6.09
2023-02-20T07:07:15.520Z,6.08
2023-02-20T07:08:15.519Z,6.09
2023-02-20T07:09:15.746Z,6.12
2023-02-20T07:10:16.126Z,6.12
2023-02-20T07:11:15.455Z,6.14
2023-02-20T07:12:15.440Z,6.16
2023-02-20T07:13:15.429Z,6.14
2023-02-20T07:14:15.426Z,6.16
2023-02-20T07:15:15.384Z,6.17
2023-02-20T07:16:15.803Z,6.19
2023-02-20T07:17:15.426Z,6.20
2023-02-20T07:18:15.400Z,6.19
2023-02-20T07:19:15.352Z,6.20
2023-02-20T07:20:15.349Z,6.22
2023-02-20T07:21:15.334Z,6.22
2023-02-20T07:22:15.337Z,6.24
2023-02-20T07:23:15.363Z,6.24
2023-02-20T07:24:15.310Z,6.26
2023-02-20T07:25:15.294Z,6.27
2023-02-20T07:26:15.323Z,6.28
2023-02-20T07:27:15.276Z,6.28
2023-02-20T07:28:15.322Z,6.28
2023-02-20T07:29:15.253Z,6.30
2023-02-20T07:30:15.301Z,6.31
2023-02-20T07:31:15.281Z,6.33
2023-02-20T07:32:15.251Z,6.35
2023-02-20T07:33:15.211Z,6.36
2023-02-20T07:34:15.255Z,6.35
2023-02-20T07:35:15.216Z,6.36
2023-02-20T07:36:15.344Z,6.36
2023-02-20T07:37:15.184Z,6.38
2023-02-20T07:38:15.165Z,6.38
2023-02-20T07:39:15.165Z,6.39
2023-02-20T07:40:15.155Z,6.41
2023-02-20T07:41:15.160Z,6.42
2023-02-20T07:42:15.127Z,6.44
2023-02-20T07:43:15.109Z,6.44
2023-02-20T07:44:15.135Z,6.42
2023-02-20T07:45:15.147Z,6.44
2023-02-20T07:46:16.057Z,6.45
2023-02-20T07:47:15.108Z,6.45
2023-02-20T07:48:15.078Z,6.46
2023-02-20T07:49:15.063Z,6.46
2023-02-20T07:50:15.066Z,6.48
2023-02-20T07:51:15.088Z,6.49
2023-02-20T07:52:15.025Z,6.49
2023-02-20T07:53:15.042Z,6.51
2023-02-20T07:54:15.000Z,6.51
2023-02-20T07:55:15.013Z,6.52
2023-02-20T07:56:15.022Z,6.56
2023-02-20T07:57:15.002Z,6.54
2023-02-20T07:58:14.997Z,6.57
2023-02-20T07:59:14.981Z,6.56
2023-02-20T08:00:14.986Z,6.56
2023-02-20T08:01:15.063Z,6.59
2023-02-20T08:02:14.948Z,6.56
2023-02-20T08:03:14.916Z,6.60
2023-02-20T08:04:14.918Z,6.60
2023-02-20T08:05:14.939Z,6.62
2023-02-20T08:06:15.233Z,6.64
2023-02-20T08:07:14.932Z,6.64
2023-02-20T08:08:14.887Z,6.66
2023-02-20T08:09:14.857Z,6.66
2023-02-20T08:10:14.894Z,6.67
2023-02-20T08:11:14.847Z,6.69
2023-02-20T08:12:17.143Z,6.69
2023-02-20T08:13:14.832Z,6.72
2023-02-20T08:14:14.835Z,6.72
2023-02-20T08:15:14.786Z,6.74
2023-02-20T08:16:15.190Z,6.75
2023-02-20T08:17:14.778Z,6.77
2023-02-20T08:18:23.207Z,6.75
2023-02-20T08:19:14.806Z,6.78
2023-02-20T08:20:14.765Z,6.79
2023-02-20T08:21:14.742Z,6.81
2023-02-20T08:22:14.745Z,6.81
2023-02-20T08:23:14.718Z,6.82
2023-02-20T08:24:14.749Z,6.82
2023-02-20T08:25:14.732Z,6.85
2023-02-20T08:26:15.071Z,6.84
2023-02-20T08:27:14.656Z,6.84
2023-02-20T08:28:14.694Z,6.85
2023-02-20T08:29:14.677Z,6.87
2023-02-20T08:30:14.723Z,6.88
2023-02-20T08:31:26.237Z,6.89
2023-02-20T08:32:15.470Z,6.92
2023-02-20T08:33:14.665Z,6.93
2023-02-20T08:34:14.628Z,6.93
2023-02-20T08:35:14.608Z,6.93
2023-02-20T08:36:14.686Z,6.96
2023-02-20T08:37:14.572Z,6.96
2023-02-20T08:38:14.553Z,6.97
2023-02-20T08:39:14.612Z,6.99
2023-02-20T08:40:14.547Z,7.02
2023-02-20T08:41:14.562Z,7.03
2023-02-20T08:42:14.517Z,7.05
2023-02-20T08:43:14.515Z,7.05
2023-02-20T08:44:14.518Z,7.06
2023-02-20T08:45:14.522Z,7.06
2023-02-20T08:46:14.900Z,7.07
2023-02-20T08:47:14.498Z,7.07
2023-02-20T08:48:14.482Z,7.11
2023-02-20T08:49:14.452Z,7.13
2023-02-20T08:50:14.458Z,7.14
2023-02-20T08:51:14.424Z,7.18
2023-02-20T08:52:14.449Z,7.17
2023-02-20T08:53:14.434Z,7.15
2023-02-20T08:54:14.444Z,7.17
2023-02-20T08:55:14.401Z,7.18
2023-02-20T08:56:14.708Z,7.18
2023-02-20T08:57:14.365Z,7.21
2023-02-20T08:58:14.407Z,7.23
2023-02-20T08:59:14.355Z,7.24
2023-02-20T09:00:14.347Z,7.24
2023-02-20T09:01:14.369Z,7.25
2023-02-20T09:02:14.378Z,7.29
2023-02-20T09:03:14.307Z,7.33
2023-02-20T09:04:14.310Z,7.35
2023-02-20T09:05:14.306Z,7.35
2023-02-20T09:06:14.617Z,7.36
2023-02-20T09:07:14.284Z,7.38
2023-02-20T09:08:14.297Z,7.39
2023-02-20T09:09:14.352Z,7.38
2023-02-20T09:10:14.244Z,7.38
2023-02-20T09:11:14.235Z,7.36
2023-02-20T09:12:14.224Z,7.35
2023-02-20T09:13:14.293Z,7.36
2023-02-20T09:14:14.238Z,7.35
2023-02-20T09:15:14.212Z,7.36
2023-02-20T09:16:14.546Z,7.39
2023-02-20T09:17:14.186Z,7.39
2023-02-20T09:18:14.220Z,7.40
2023-02-20T09:19:14.187Z,7.42
2023-02-20T09:20:14.145Z,7.40
2023-02-20T09:21:14.168Z,7.40
2023-02-20T09:22:14.142Z,7.40
2023-02-20T09:23:14.179Z,7.40
2023-02-20T09:24:14.115Z,7.40
2023-02-20T09:25:14.113Z,7.40
2023-02-20T09:26:14.524Z,7.42
2023-02-20T09:27:14.079Z,7.42
2023-02-20T09:28:14.186Z,7.45
2023-02-20T09:29:14.083Z,7.47
2023-02-20T09:30:14.129Z,7.48
2023-02-20T09:31:14.087Z,7.51
2023-02-20T09:32:14.139Z,7.53
2023-02-20T09:33:14.031Z,7.54
2023-02-20T09:34:14.019Z,7.57
2023-02-20T09:35:14.021Z,7.57
2023-02-20T09:36:14.325Z,7.57
2023-02-20T09:37:14.009Z,7.57
2023-02-20T09:38:14.315Z,7.57
2023-02-20T09:39:13.968Z,7.58
2023-02-20T09:40:13.963Z,7.61
2023-02-20T09:41:13.941Z,7.63
2023-02-20T09:42:13.950Z,7.66
2023-02-20T09:43:13.963Z,7.66
2023-02-20T09:44:13.947Z,7.66
2023-02-20T09:45:13.900Z,7.69
2023-02-20T09:46:14.312Z,7.69
2023-02-20T09:47:13.886Z,7.72
2023-02-20T09:48:13.906Z,7.72
2023-02-20T09:49:13.864Z,7.70
2023-02-20T09:50:13.839Z,7.72
2023-02-20T09:51:13.879Z,7.72
2023-02-20T09:52:13.837Z,7.72
2023-02-20T09:53:13.845Z,7.72
2023-02-20T09:54:13.808Z,7.76
2023-02-20T09:55:13.787Z,7.76
2023-02-20T09:56:14.146Z,7.77
2023-02-20T09:57:13.809Z,7.80
2023-02-20T09:58:13.746Z,7.85
2023-02-20T09:59:13.761Z,7.87
2023-02-20T10:00:13.735Z,7.87
2023-02-20T10:01:13.749Z,7.88
2023-02-20T10:02:13.890Z,7.90
2023-02-20T10:03:13.891Z,7.94
2023-02-20T10:04:13.788Z,7.95
2023-02-20T10:05:13.732Z,7.98
2023-02-20T10:06:13.932Z,8.01
2023-02-20T10:07:13.681Z,8.05
2023-02-20T10:08:13.668Z,8.08
2023-02-20T10:09:13.699Z,8.10
2023-02-20T10:10:13.693Z,8.13
2023-02-20T10:11:13.676Z,8.13
2023-02-20T10:12:13.627Z,8.15
2023-02-20T10:13:13.618Z,8.15
2023-02-20T10:14:13.636Z,8.15
2023-02-20T10:15:13.600Z,8.16
2023-02-20T10:16:14.050Z,8.16
2023-02-20T10:17:13.579Z,8.18
2023-02-20T10:18:13.569Z,8.18
2023-02-20T10:19:13.547Z,8.24
2023-02-20T10:20:13.544Z,8.24
2023-02-20T10:21:13.540Z,8.24
2023-02-20T10:22:13.527Z,8.23
2023-02-20T10:23:13.549Z,8.23
2023-02-20T10:24:13.509Z,8.26
2023-02-20T10:25:13.502Z,8.24
2023-02-20T10:26:13.879Z,8.27
2023-02-20T10:27:13.482Z,8.31
2023-02-20T10:28:13.488Z,8.33
2023-02-20T10:29:13.511Z,8.34
2023-02-20T10:30:13.476Z,8.33
2023-02-20T10:31:13.483Z,8.31
2023-02-20T10:32:13.464Z,8.33
2023-02-20T10:33:13.438Z,8.36
2023-02-20T10:34:13.479Z,8.38
2023-02-20T10:35:13.439Z,8.41
2023-02-20T10:36:13.681Z,8.42
2023-02-20T10:37:13.343Z,8.44
2023-02-20T10:38:13.372Z,8.46
2023-02-20T10:39:13.434Z,8.51
2023-02-20T10:40:13.360Z,8.51
2023-02-20T10:41:13.361Z,8.49
2023-02-20T10:42:13.349Z,8.48
2023-02-20T10:43:13.366Z,8.44
2023-02-20T10:44:13.291Z,8.42
2023-02-20T10:45:13.282Z,8.44
2023-02-20T10:46:13.372Z,8.38
2023-02-20T10:47:13.298Z,8.37
2023-02-20T10:48:13.273Z,8.36
2023-02-20T10:49:13.250Z,8.37
2023-02-20T10:50:13.222Z,8.37
2023-02-20T10:51:13.210Z,8.38
2023-02-20T10:52:29.505Z,8.38
2023-02-20T10:53:13.229Z,8.41
2023-02-20T10:54:13.190Z,8.42
2023-02-20T10:55:13.168Z,8.41
2023-02-20T10:56:13.483Z,8.41
2023-02-20T10:57:13.189Z,8.44
2023-02-20T10:58:13.131Z,8.42
2023-02-20T10:59:13.132Z,8.44
2023-02-20T11:00:13.120Z,8.44
2023-02-20T11:01:13.217Z,8.42
2023-02-20T11:02:13.155Z,8.44
2023-02-20T11:03:13.129Z,8.45
2023-02-20T11:04:13.149Z,8.45
2023-02-20T11:05:13.091Z,8.45
2023-02-20T11:06:13.570Z,8.48
2023-02-20T11:07:13.051Z,8.49
2023-02-20T11:08:13.050Z,8.49
2023-02-20T11:09:13.039Z,8.49
2023-02-20T11:10:13.074Z,8.46
2023-02-20T11:11:13.233Z,8.46
2023-02-20T11:12:12.975Z,8.45
2023-02-20T11:13:13.054Z,8.45
2023-02-20T11:14:12.977Z,8.44
2023-02-20T11:15:12.975Z,8.45
2023-02-20T11:16:13.280Z,8.44
2023-02-20T11:17:12.954Z,8.44
2023-02-20T11:18:12.949Z,8.42
2023-02-20T11:19:12.938Z,8.44
2023-02-20T11:20:14.999Z,8.42
2023-02-20T11:21:12.904Z,8.41
2023-02-20T11:22:12.891Z,8.41
2023-02-20T11:23:12.892Z,8.41
2023-02-20T11:24:12.862Z,8.42
2023-02-20T11:25:12.865Z,8.38
2023-02-20T11:26:13.267Z,8.37
2023-02-20T11:27:12.965Z,8.38
2023-02-20T11:28:12.851Z,8.37
2023-02-20T11:29:12.872Z,8.38
2023-02-20T11:30:12.875Z,8.37
2023-02-20T11:31:12.918Z,8.36
2023-02-20T11:32:12.863Z,8.36
2023-02-20T11:33:12.814Z,8.37
2023-02-20T11:34:12.828Z,8.36
2023-02-20T11:35:12.777Z,8.33
2023-02-20T11:36:13.146Z,8.36
2023-02-20T11:37:12.775Z,8.36
2023-02-20T11:38:13.669Z,8.37
2023-02-20T11:39:12.761Z,8.37
2023-02-20T11:40:12.721Z,8.36
2023-02-20T11:41:12.778Z,8.36
2023-02-20T11:42:12.782Z,8.33
2023-02-20T11:43:12.724Z,8.34
2023-02-20T11:44:12.689Z,8.34
2023-02-20T11:45:12.698Z,8.31
2023-02-20T11:46:13.066Z,8.33
2023-02-20T11:47:12.754Z,8.31
2023-02-20T11:48:12.682Z,8.30
2023-02-20T11:49:12.675Z,8.31
2023-02-20T11:50:18.971Z,8.31
2023-02-20T11:51:12.655Z,8.31
2023-02-20T11:52:12.684Z,8.31
2023-02-20T11:53:12.642Z,8.33
2023-02-20T11:54:12.614Z,8.33
2023-02-20T11:55:12.590Z,8.31
2023-02-20T11:56:12.936Z,8.34
2023-02-20T11:57:12.578Z,8.36
2023-02-20T11:58:12.558Z,8.37
2023-02-20T11:59:12.585Z,8.37
2023-02-20T12:00:12.609Z,8.37
2023-02-20T12:01:12.551Z,8.38
2023-02-20T12:02:12.549Z,8.42
2023-02-20T12:03:12.522Z,8.44
2023-02-20T12:04:12.586Z,8.44
2023-02-20T12:05:12.599Z,8.44
2023-02-20T12:06:12.876Z,8.45
2023-02-20T12:07:12.446Z,8.49
2023-02-20T12:08:12.462Z,8.49
2023-02-20T12:09:12.434Z,8.52
2023-02-20T12:10:12.405Z,8.53
2023-02-20T12:11:12.404Z,8.58
2023-02-20T12:12:12.402Z,8.60
2023-02-20T12:13:12.425Z,8.61
2023-02-20T12:14:12.393Z,8.63
2023-02-20T12:15:12.364Z,8.63
2023-02-20T12:16:12.706Z,8.61
2023-02-20T12:17:12.341Z,8.66
2023-02-20T12:18:12.350Z,8.66
2023-02-20T12:19:12.327Z,8.69
2023-02-20T12:20:12.292Z,8.69
2023-02-20T12:21:12.312Z,8.66
2023-02-20T12:22:12.338Z,8.67
2023-02-20T12:23:12.300Z,8.67
2023-02-20T12:24:12.275Z,8.71
2023-02-20T12:25:12.328Z,8.71
2023-02-20T12:26:12.590Z,8.70
2023-02-20T12:27:12.234Z,8.74
2023-02-20T12:28:12.234Z,8.73
2023-02-20T12:29:12.258Z,8.74
2023-02-20T12:30:12.304Z,8.74
2023-02-20T12:31:12.338Z,8.74
2023-02-20T12:32:12.351Z,8.76
2023-02-20T12:33:12.201Z,8.73
2023-02-20T12:34:12.187Z,8.73
2023-02-20T12:35:12.206Z,8.71
2023-02-20T12:36:12.632Z,8.70
2023-02-20T12:37:12.159Z,8.69
2023-02-20T12:38:12.125Z,8.69
2023-02-20T12:39:12.191Z,8.67
2023-02-20T12:40:12.122Z,8.69
2023-02-20T12:41:12.110Z,8.69
2023-02-20T12:42:12.232Z,8.67
2023-02-20T12:43:12.098Z,8.70
2023-02-20T12:44:13.770Z,8.69
2023-02-20T12:45:12.095Z,8.71
2023-02-20T12:46:12.575Z,8.73
2023-02-20T12:47:12.033Z,8.71
2023-02-20T12:48:12.047Z,8.70
2023-02-20T12:49:12.095Z,8.71
2023-02-20T12:50:12.022Z,8.70
2023-02-20T12:51:12.016Z,8.69
2023-02-20T12:52:11.980Z,8.69
2023-02-20T12:53:11.987Z,8.67
2023-02-20T12:54:11.971Z,8.66
2023-02-20T12:55:12.000Z,8.63
2023-02-20T12:56:12.367Z,8.66
2023-02-20T12:57:11.961Z,8.64
2023-02-20T12:58:11.934Z,8.64
2023-02-20T12:59:11.971Z,8.63
2023-02-20T13:00:11.918Z,8.64
2023-02-20T13:01:11.966Z,8.63
2023-02-20T13:02:11.897Z,8.63
2023-02-20T13:03:11.939Z,8.61
2023-02-20T13:04:11.867Z,8.56
2023-02-20T13:05:11.859Z,8.56
2023-02-20T13:06:12.139Z,8.58
2023-02-20T13:07:11.838Z,8.56
2023-02-20T13:08:11.849Z,8.55
2023-02-20T13:09:11.817Z,8.53
2023-02-20T13:10:11.890Z,8.52
2023-02-20T13:11:11.813Z,8.52
2023-02-20T13:12:11.795Z,8.51
2023-02-20T13:13:11.832Z,8.51
2023-02-20T13:14:11.751Z,8.51
2023-02-20T13:15:11.801Z,8.52
2023-02-20T13:16:12.086Z,8.52
2023-02-20T13:17:11.721Z,8.51
2023-02-20T13:18:12.700Z,8.52